메인 페이지
METAR-TAF:

METAR-TAF

공항 :

Pirassununga, 상파울루, 브라질

위도: 21-59S, 경도: 047-20W, 고도: 597m

현재 날씨관측

예보는 4 시간 53분 전, 02:00시(UTC)에 발표되었습니다.
남남서7kt
온도 16°C
습도 94%
기압 1022 hPa
시정 10km 이상
고도 4700ft 상공 구름 보통

METAR: SBYS 230200Z 21007KT 9999 SCT047 16/15 Q1022

시각: 03:53 (06:53 UTC)

예보

예보는 3 시간 53분 전, 03:00시(UTC)에 발표되었습니다.
예보 대상 시간: 23일 06시부터 23일 18시까지 (UTC)
남남동7kt
시정 10km 이상
고도 3500ft 상공 구름 많음
확률 30%
23일 07시부터 23일 10시까지 (UTC)
시정: 5000m
고도 600ft 상공 구름 많음
박무
전환 중
23일 12시부터 23일 14시까지 (UTC)
고도 4000ft 상공 구름 보통

TAF: SBYS 230300Z 2306/2318 16007KT 9999 BKN035 TN15/2308Z TX27/2318Z PROB30 2307/2310 5000 BR BKN006 BECMG 2312/2314 SCT040 RMK PER

4,000개 이상의 공항 관측 자료 및 예보 (METAR 및 TAF 보고).

지도상에서 검색 가능한 기상관측소가 노란 점과 빨간 점으로 표시되어 있습니다.

기상관측소 명을 보려면 표시 위로 마우스를 이동하세요.

날씨 관측과 예보를 보려면 클릭하세요.

지도 변경 : 확대하려면 엑스 표시가 있는 녹색 버튼, 축소하려면 빼기 표시가 있는 녹색 버튼, 다음 페이지의 지도를 보려면 녹색 화살표를 클릭하세요.


METAR-TAF: